Time;durP1;ratioP1;P1;durP2;ratioP2;P2;SDS_P1;SDS_P2;PMS_P1;PMS_P2;Temp;Humidity;BMP_temperature;BMP_pressure;BME280_temperature;BME280_humidity;BME280_pressure;Samples;Min_cycle;Max_cycle;Signal;HPM_P1;HPM_P2
2022/04/20 00:00:04;;;;;;;0.20;0.20;;;9.10;99.90;;;8.68;75.73;99415.34;5063399;28;20240;-74
2022/04/20 00:02:37;;;;;;;0.20;0.20;;;9.00;99.90;;;8.55;74.50;99417.09;5072907;28;20841;-74
2022/04/20 00:05:05;;;;;;;0.40;0.40;;;8.90;99.90;;;8.42;76.46;99427.63;5079684;28;20235;-73
2022/04/20 00:07:33;;;;;;;0.20;0.20;;;;;;;8.43;74.58;99424.09;5077014;28;20201;-74
2022/04/20 00:10:02;;;;;;;0.10;0.10;;;8.80;99.90;;;8.53;74.64;99450.47;5061988;28;20208;-75
2022/04/20 00:12:30;;;;;;;0.20;0.20;;;8.80;99.90;;;8.49;74.91;99461.00;5081671;28;20205;-75
2022/04/20 00:14:58;;;;;;;0.20;0.20;;;8.80;99.90;;;8.55;74.32;99471.56;5064265;28;20688;-76
2022/04/20 00:17:26;;;;;;;0.10;0.10;;;8.80;99.90;;;8.46;72.92;99451.34;5090209;28;20200;-75
2022/04/20 00:19:54;;;;;;;0.20;0.20;;;8.70;99.90;;;8.26;74.16;99442.47;5082240;28;20204;-75
2022/04/20 00:22:22;;;;;;;0.20;0.20;;;8.70;99.90;;;8.48;72.03;99477.69;5080862;28;20232;-75
2022/04/20 00:24:50;;;;;;;0.20;0.20;;;8.50;99.90;;;8.60;70.08;99446.09;5085619;28;20222;-75
2022/04/20 00:27:18;;;;;;;0.20;0.20;;;;;;;8.34;72.16;99443.41;5061641;28;20233;-75
2022/04/20 00:29:46;;;;;;;0.30;0.30;;;8.60;99.90;;;8.11;74.02;99437.16;5067890;28;20652;-74
2022/04/20 00:32:14;;;;;;;0.20;0.20;;;8.50;99.90;;;8.05;73.35;99434.53;5062773;28;20213;-75
2022/04/20 00:34:42;;;;;;;0.20;0.20;;;8.40;99.90;;;7.90;75.49;99452.03;5080676;28;20213;-75
2022/04/20 00:37:10;;;;;;;0.20;0.20;;;8.30;99.90;;;8.06;73.92;99474.03;5083747;28;20240;-73
2022/04/20 00:39:38;;;;;;;0.20;0.20;;;;;;;8.00;75.52;99490.69;5061658;28;20197;-73
2022/04/20 00:42:07;;;;;;;0.20;0.20;;;8.40;99.90;;;7.87;75.21;99490.63;5076609;28;20213;-73
2022/04/20 00:44:35;;;;;;;0.20;0.20;;;8.20;99.90;;;8.21;73.40;99515.34;5067136;28;20731;-73
2022/04/20 00:47:05;;;;;;;0.20;0.20;;;8.20;99.90;;;8.06;74.49;99508.25;5076486;28;20229;-73
2022/04/20 00:49:35;;;;;;;0.25;0.25;;;8.20;99.90;;;8.01;73.53;99494.19;5046955;28;20205;-73
2022/04/20 00:52:06;;;;;;;0.20;0.20;;;8.20;99.90;;;8.01;75.33;99524.03;5062045;28;20208;-73
2022/04/20 00:54:34;;;;;;;0.30;0.30;;;8.20;99.90;;;7.92;77.39;99544.16;5062533;28;20209;-73
2022/04/20 00:57:03;;;;;;;0.20;0.20;;;8.20;99.90;;;7.90;76.52;99543.28;5062091;28;20230;-73
2022/04/20 00:59:35;;;;;;;0.28;0.28;;;8.10;99.90;;;7.74;76.38;99531.75;5069295;28;20212;-73
2022/04/20 01:02:04;;;;;;;0.20;0.20;;;8.10;99.90;;;7.72;76.97;99551.91;5078951;28;20201;-73
2022/04/20 01:04:33;;;;;;;0.20;0.20;;;8.10;99.90;;;7.94;74.70;99559.09;5062928;28;20237;-73
2022/04/20 01:07:37;;;;;;;0.20;0.20;;;8.00;99.90;;;7.76;75.46;99545.78;5064095;28;20194;-75
2022/04/20 01:10:32;;;;;;;0.20;0.20;;;8.00;99.90;;;7.49;76.23;99532.47;5082492;28;20201;-75
2022/04/20 01:13:30;;;;;;;0.20;0.20;;;;;;;7.54;76.54;99546.53;5040091;28;20211;-75
2022/04/20 01:16:16;;;;;;;0.20;0.20;;;7.80;99.90;;;7.65;76.86;99587.81;5081448;28;20229;-76
2022/04/20 01:19:04;;;;;;;0.30;0.30;;;;;;;7.87;73.67;99591.53;5065906;28;20205;-75
2022/04/20 01:21:43;;;;;;;0.20;0.20;;;7.80;99.90;;;7.80;73.82;99570.38;5075528;28;20212;-75
2022/04/20 01:24:33;;;;;;;0.20;0.20;;;;;;;7.81;73.12;99553.75;5081507;28;20229;-75
2022/04/20 01:27:20;;;;;;;0.20;0.20;;;7.80;99.90;;;7.89;71.93;99560.81;5080253;28;20202;-75
2022/04/20 01:30:08;;;;;;;0.20;0.20;;;7.90;99.90;;;7.88;71.61;99545.03;5073294;28;20205;-74
2022/04/20 01:33:12;;;;;;;0.20;0.20;;;7.90;99.90;;;7.85;71.69;99540.63;5032355;28;20757;-74
2022/04/20 01:35:44;;;;;;;0.20;0.20;;;7.90;99.90;;;7.76;72.75;99551.06;5053030;28;20229;-73
2022/04/20 01:38:12;;;;;;;0.20;0.20;;;7.80;99.90;;;7.67;73.50;99543.09;5063154;28;20232;-73
2022/04/20 01:40:41;;;;;;;0.10;0.10;;;7.70;99.90;;;7.77;73.42;99557.19;5055620;28;20198;-73
2022/04/20 01:43:09;;;;;;;0.20;0.20;;;7.70;99.90;;;7.72;73.08;99551.91;5065097;28;20206;-74
2022/04/20 01:45:45;;;;;;;0.20;0.20;;;7.70;99.90;;;7.63;72.76;99538.69;5065885;28;20248;-77
2022/04/20 01:48:35;;;;;;;0.45;0.45;;;7.70;99.90;;;7.60;72.87;99546.56;5055221;28;20224;-74
2022/04/20 01:54:32;;;;;;;0.20;0.20;;;7.60;99.90;;;7.42;75.26;99557.84;5072913;28;20212;-73
2022/04/20 01:57:26;;;;;;;0.20;0.20;;;7.50;99.90;;;7.37;75.27;99560.44;5067415;28;20217;-73
2022/04/20 02:00:23;;;;;;;0.20;0.20;;;7.50;99.90;;;7.21;76.42;99570.81;5056592;28;20197;-73
2022/04/20 02:03:11;;;;;;;0.20;0.20;;;7.40;99.90;;;7.01;78.25;99581.16;5072137;28;20220;-73
2022/04/20 02:05:49;;;;;;;0.20;0.20;;;7.30;99.90;;;6.96;79.97;99603.88;5052252;28;20264;-74
2022/04/20 02:08:22;;;;;;;0.20;0.20;;;7.30;99.90;;;7.04;78.41;99617.97;5064214;28;20210;-73
2022/04/20 02:11:12;;;;;;;0.20;0.20;;;7.20;99.90;;;6.98;78.14;99620.56;5072859;28;20633;-73
2022/04/20 02:13:40;;;;;;;0.20;0.20;;;7.20;99.90;;;7.03;78.02;99639.88;5063980;28;20677;-73
2022/04/20 02:16:08;;;;;;;0.20;0.20;;;7.10;99.90;;;6.93;79.68;99653.78;5068148;28;20236;-73
2022/04/20 02:18:51;;;;;;;0.20;0.20;;;7.10;99.90;;;6.81;78.40;99638.75;5060290;28;20239;-73
2022/04/20 02:21:55;;;;;;;0.20;0.20;;;7.00;99.90;;;6.79;79.52;99650.13;4995550;28;20204;-73
2022/04/20 02:24:23;;;;;;;0.20;0.20;;;7.00;99.90;;;6.79;79.88;99664.16;5064558;28;20229;-73
2022/04/20 02:26:51;;;;;;;0.20;0.20;;;6.90;99.90;;;6.78;79.49;99675.53;5066228;28;20222;-73
2022/04/20 02:29:19;;;;;;;0.20;0.20;;;6.90;99.90;;;6.72;79.61;99676.31;5073038;28;20216;-73
2022/04/20 02:31:48;;;;;;;0.30;0.30;;;6.80;99.90;;;6.71;79.54;99677.19;5063751;28;20213;-73
2022/04/20 02:34:16;;;;;;;0.20;0.20;;;6.80;99.90;;;6.86;79.78;99709.78;5062976;28;20210;-74
2022/04/20 02:36:45;;;;;;;0.20;0.20;;;6.80;99.90;;;6.81;78.48;99693.94;5078512;28;20246;-73
2022/04/20 02:39:13;;;;;;;0.20;0.20;;;6.80;99.90;;;6.73;78.11;99685.97;5044487;28;20205;-73
2022/04/20 02:41:42;;;;;;;0.20;0.20;;;6.70;99.90;;;6.71;78.46;99689.44;5067278;28;20218;-73
2022/04/20 02:44:11;;;;;;;0.30;0.30;;;6.80;99.90;;;6.72;78.31;99702.59;5039780;28;20578;-73
2022/04/20 02:46:39;;;;;;;0.30;0.30;;;6.70;99.90;;;6.59;78.98;99694.53;5052915;28;20233;-73
2022/04/20 02:49:07;;;;;;;0.20;0.20;;;6.70;99.90;;;6.51;79.11;99688.31;5056088;28;20197;-74
2022/04/20 02:51:35;;;;;;;0.30;0.30;;;;;;;6.59;79.25;99713.81;5055632;28;20213;-75
2022/04/20 02:54:04;;;;;;;0.30;0.30;;;6.60;99.90;;;6.56;79.84;99724.28;5060055;28;20202;-75
2022/04/20 02:56:34;;;;;;;0.20;0.20;;;6.60;99.90;;;6.51;79.88;99728.59;5076462;28;20584;-75
2022/04/20 02:59:02;;;;;;;0.30;0.30;;;6.50;99.90;;;6.57;80.38;99744.44;5078268;28;20209;-75
2022/04/20 03:01:33;;;;;;;0.20;0.20;;;6.50;99.90;;;6.40;80.48;99725.78;5046097;28;20217;-75
2022/04/20 03:04:05;;;;;;;0.20;0.20;;;6.60;99.90;;;6.37;80.51;99728.38;5055595;28;20221;-75
2022/04/20 03:06:33;;;;;;;0.20;0.20;;;6.50;99.90;;;6.54;79.40;99760.16;5061546;28;20229;-75
2022/04/20 03:09:07;;;;;;;0.20;0.20;;;6.50;99.90;;;6.61;80.28;99780.41;5074238;28;20209;-75
2022/04/20 03:11:40;;;;;;;0.20;0.20;;;6.50;99.90;;;6.47;80.00;99757.38;5061096;28;20206;-75
2022/04/20 03:14:08;;;;;;;0.20;0.20;;;6.50;99.90;;;6.48;79.96;99757.41;5083320;28;20204;-75
2022/04/20 03:16:37;;;;;;;0.20;0.20;;;6.50;99.90;;;6.43;80.26;99764.34;5065018;28;20216;-75
2022/04/20 03:19:10;;;;;;;0.20;0.20;;;6.40;99.90;;;6.45;80.11;99766.97;5069387;28;20205;-75
2022/04/20 03:21:38;;;;;;;0.20;0.20;;;6.40;99.90;;;6.39;79.81;99760.78;5079204;28;20224;-74
2022/04/20 03:24:06;;;;;;;0.20;0.20;;;6.40;99.90;;;6.42;80.09;99778.31;5070858;28;20217;-74
2022/04/20 03:26:55;;;;;;;0.20;0.20;;;6.30;99.90;;;6.38;79.29;99766.91;5076849;28;20225;-74
2022/04/20 03:29:26;;;;;;;0.20;0.20;;;6.30;99.90;;;6.31;78.77;99757.16;5055994;28;20202;-74
2022/04/20 03:31:54;;;;;;;0.20;0.20;;;6.30;99.90;;;6.35;79.01;99763.34;5056237;28;20217;-74
2022/04/20 03:34:22;;;;;;;0.30;0.30;;;6.30;99.90;;;6.39;78.98;99787.03;5068988;28;20214;-74
2022/04/20 03:36:50;;;;;;;0.20;0.20;;;6.30;99.90;;;6.33;79.28;99784.31;5059187;28;20233;-74
2022/04/20 03:39:18;;;;;;;0.20;0.20;;;6.20;99.90;;;6.34;79.07;99791.34;5045103;28;20212;-74
2022/04/20 03:41:46;;;;;;;0.20;0.20;;;6.20;99.90;;;6.37;79.96;99798.38;5061836;28;20214;-74
2022/04/20 03:44:14;;;;;;;0.20;0.20;;;6.30;99.90;;;6.40;79.79;99811.56;5088004;28;20208;-74
2022/04/20 03:46:42;;;;;;;0.20;0.20;;;6.20;99.90;;;6.33;79.29;99796.56;5063635;28;20236;-74
2022/04/20 03:49:10;;;;;;;0.30;0.30;;;6.20;99.90;;;6.32;79.66;99800.06;5070988;28;20198;-74
2022/04/20 03:51:39;;;;;;;0.30;0.30;;;6.20;99.90;;;6.27;78.89;99794.72;5070817;28;20213;-74
2022/04/20 03:54:07;;;;;;;0.30;0.30;;;6.20;99.90;;;6.26;78.80;99798.22;5061125;28;20206;-74
2022/04/20 03:59:24;;;;;;;0.22;0.22;;;6.10;99.90;;;6.12;80.84;99814.59;5073613;28;20204;-74
2022/04/20 04:01:53;;;;;;;0.25;0.25;;;6.10;99.90;;;6.09;80.90;99818.06;5057526;28;20225;-74
2022/04/20 04:04:22;;;;;;;0.30;0.30;;;6.10;99.90;;;5.86;81.27;99815.00;5067285;28;20204;-74
2022/04/20 04:06:52;;;;;;;0.20;0.20;;;6.00;99.90;;;5.90;82.03;99826.47;5066671;28;20609;-74
2022/04/20 04:09:21;;;;;;;0.30;0.30;;;5.90;99.90;;;5.88;82.59;99839.53;5077512;28;20226;-74
2022/04/20 04:11:50;;;;;;;0.20;0.20;;;5.90;99.90;;;5.78;83.14;99850.69;5079909;28;20220;-74
2022/04/20 04:14:20;;;;;;;0.30;0.30;;;5.80;99.90;;;5.73;82.98;99848.00;5068684;28;20217;-74
2022/04/20 04:16:49;;;;;;;0.30;0.30;;;5.80;99.90;;;5.67;83.75;99858.38;5076189;28;20226;-74
2022/04/20 04:19:19;;;;;;;0.20;0.20;;;5.80;99.90;;;5.83;83.78;99892.78;5074246;28;20201;-74
2022/04/20 04:21:52;;;;;;;0.20;0.20;;;5.90;99.90;;;5.90;82.98;99906.06;5073351;28;20209;-74
2022/04/20 04:24:42;;;;;;;0.30;0.30;;;5.80;99.90;;;5.89;83.59;99916.50;5075193;28;20763;-74
2022/04/20 04:27:12;;;;;;;0.30;0.30;;;5.80;99.90;;;5.74;84.17;99893.47;5060144;28;20237;-74
2022/04/20 04:29:42;;;;;;;0.30;0.30;;;5.80;99.90;;;5.68;84.32;99895.97;5089609;28;20214;-74
2022/04/20 04:32:12;;;;;;;0.20;0.20;;;5.70;99.90;;;5.86;84.46;99926.94;5061995;28;20221;-74
2022/04/20 04:34:41;;;;;;;0.40;0.40;;;5.70;99.90;;;5.82;84.16;99926.00;5054940;28;20197;-74
2022/04/20 04:37:13;;;;;;;0.30;0.30;;;5.70;99.90;;;5.95;84.09;99935.03;5063531;28;20229;-73
2022/04/20 04:39:43;;;;;;;0.30;0.30;;;5.70;99.90;;;5.87;83.02;99916.47;5063749;28;20276;-72
2022/04/20 04:42:12;;;;;;;0.30;0.30;;;5.80;99.90;;;5.90;83.17;99923.56;5061760;28;20217;-73
2022/04/20 04:44:40;;;;;;;0.20;0.20;;;5.70;99.90;;;5.96;83.37;99942.06;5043379;28;20240;-73
2022/04/20 04:50:04;;;;;;;0.20;0.20;;;5.70;99.90;;;5.74;83.97;99930.22;5053673;28;20212;-73
2022/04/20 04:52:32;;;;;;;0.30;0.30;;;5.70;99.90;;;5.78;84.68;99942.53;5042679;28;20238;-73
2022/04/20 04:55:06;;;;;;;0.30;0.30;;;5.70;99.90;;;5.68;85.51;99949.34;5056012;28;20217;-73
2022/04/20 04:57:36;;;;;;;0.30;0.30;;;5.60;99.90;;;5.59;85.40;99946.50;5052752;28;20205;-73
2022/04/20 05:00:06;;;;;;;0.30;0.30;;;5.60;99.90;;;5.65;86.11;99962.38;5052135;28;20216;-73
2022/04/20 05:02:48;;;;;;;0.30;0.30;;;5.60;99.90;;;5.52;86.68;99952.50;5054184;28;20209;-73
2022/04/20 05:05:17;;;;;;;0.20;0.20;;;5.60;99.90;;;5.61;87.27;99978.91;5057628;28;20232;-73
2022/04/20 05:07:46;;;;;;;0.20;0.20;;;5.60;99.90;;;5.52;87.40;99973.47;5052768;28;20214;-74
2022/04/20 05:10:16;;;;;;;0.30;0.30;;;5.50;99.90;;;5.63;87.68;99999.94;5064886;28;20209;-73
2022/04/20 05:12:45;;;;;;;0.30;0.30;;;5.50;99.90;;;5.60;87.88;99989.38;5045472;28;20216;-76
2022/04/20 05:15:14;;;;;;;0.25;0.25;;;5.50;99.90;;;5.84;87.78;100039.75;5061911;28;20232;-75
2022/04/20 05:17:42;;;;;;;0.20;0.20;;;5.60;99.90;;;5.75;87.39;100021.19;5065897;28;20213;-76
2022/04/20 05:20:11;;;;;;;0.30;0.30;;;5.60;99.90;;;5.75;87.13;100015.94;5054127;28;20208;-78
2022/04/20 05:22:39;;;;;;;0.20;0.20;;;5.60;99.90;;;5.77;87.49;100022.09;5062954;28;20213;-77
2022/04/20 05:25:08;;;;;;;0.20;0.20;;;5.60;99.90;;;5.79;87.58;100026.53;5071653;28;20218;-76
2022/04/20 05:27:36;;;;;;;0.20;0.20;;;5.70;99.90;;;5.87;86.91;100042.44;5063872;28;20233;-77
2022/04/20 05:30:13;;;;;;;0.20;0.20;;;5.70;99.90;;;5.95;87.19;100047.88;5079042;28;20205;-76
2022/04/20 05:32:42;;;;;;;0.30;0.30;;;5.70;99.90;;;5.94;87.54;100052.25;5071038;28;20205;-77
2022/04/20 05:35:22;;;;;;;0.20;0.20;;;5.70;99.90;;;6.03;87.20;100068.19;5068231;28;20221;-77
2022/04/20 05:43:45;;;;;;;0.30;0.30;;;5.90;99.90;;;6.30;86.98;100109.00;5069639;28;20216;-76
2022/04/20 05:46:17;;;;;;;0.20;0.20;;;6.00;99.90;;;6.34;86.72;100110.84;5063330;28;20240;-77
2022/04/20 05:48:54;;;;;;;0.20;0.20;;;6.10;99.90;;;6.33;86.71;100103.81;5056269;28;20201;-77
2022/04/20 05:51:22;;;;;;;0.30;0.30;;;6.10;99.90;;;6.40;86.80;100109.22;5054505;28;20611;-77
2022/04/20 05:53:50;;;;;;;0.20;0.20;;;6.10;99.90;;;6.41;87.24;100113.63;5056624;28;20217;-77
2022/04/20 05:56:19;;;;;;;0.22;0.22;;;;;;;6.48;86.74;100125.13;5044004;28;20236;-77
2022/04/20 05:58:50;;;;;;;0.30;0.30;;;6.20;99.90;;;6.50;87.13;100122.53;5077145;28;20217;-78
2022/04/20 06:01:22;;;;;;;0.30;0.30;;;6.30;99.90;;;6.61;87.18;100145.59;5075657;28;20201;-78
2022/04/20 06:03:59;;;;;;;0.20;0.20;;;6.40;99.90;;;6.63;87.22;100145.63;5050595;28;20208;-77
2022/04/20 06:06:40;;;;;;;0.20;0.20;;;6.40;99.90;;;6.72;87.21;100159.81;5067419;28;20234;-77
2022/04/20 06:09:19;;;;;;;0.20;0.20;;;6.40;99.90;;;6.83;87.66;100174.91;5062331;28;20441;-78
2022/04/20 06:12:10;;;;;;;0.30;0.30;;;6.50;99.90;;;6.87;87.26;100176.75;5038614;28;20202;-78
2022/04/20 06:15:13;;;;;;;0.30;0.30;;;6.60;99.90;;;6.92;87.46;100172.47;5046171;28;20222;-77
2022/04/20 06:18:07;;;;;;;0.30;0.30;;;6.60;99.90;;;7.07;87.61;100194.69;5047354;28;20201;-77
2022/04/20 06:20:36;;;;;;;0.25;0.25;;;6.70;99.90;;;7.19;88.09;100201.03;5073164;28;20204;-77
2022/04/20 06:23:16;;;;;;;0.30;0.30;;;6.80;99.90;;;7.29;87.85;100205.59;5079240;28;20209;-77
2022/04/20 06:26:19;;;;;;;0.20;0.20;;;6.90;99.90;;;7.40;87.24;100201.44;5066075;28;20233;-77
2022/04/20 06:29:19;;;;;;;0.20;0.20;;;7.00;99.90;;;7.55;87.76;100220.09;5039337;28;20205;-77
2022/04/20 06:32:01;;;;;;;0.30;0.30;;;7.20;99.90;;;7.72;86.32;100223.03;5070567;28;20202;-77
2022/04/20 06:34:38;;;;;;;0.20;0.20;;;7.30;99.90;;;7.83;85.98;100210.97;5067316;28;20220;-77
2022/04/20 06:37:35;;;;;;;0.20;0.20;;;7.40;99.90;;;8.05;85.84;100227.13;5066766;28;20221;-77
2022/04/20 06:40:27;;;;;;;0.28;0.28;;;7.50;99.90;;;8.27;85.87;100240.63;5067370;28;20206;-78
2022/04/20 06:43:18;;;;;;;0.20;0.20;;;7.70;99.90;;;8.47;84.66;100224.25;5041106;28;20221;-76
2022/04/20 06:46:04;;;;;;;0.30;0.30;;;7.80;99.90;;;8.54;84.05;100210.31;5055599;28;20266;-75
2022/04/20 06:48:58;;;;;;;0.10;0.10;;;8.00;99.90;;;8.78;82.19;100212.38;5052705;28;20669;-75
2022/04/20 07:00:15;;;;;;;0.20;0.20;;;8.50;99.90;;;9.36;76.77;100113.69;5068131;28;20204;-75
2022/04/20 07:03:04;;;;;;;0.20;0.20;;;8.70;99.90;;;9.58;76.35;100109.47;5074444;28;20205;-76
2022/04/20 07:05:59;;;;;;;0.20;0.20;;;8.90;99.90;;;9.67;75.27;100079.59;5069968;28;20319;-75
2022/04/20 07:08:28;;;;;;;0.20;0.20;;;9.00;99.90;;;9.64;74.59;100056.69;5070413;28;20229;-76
2022/04/20 07:11:17;;;;;;;0.20;0.20;;;9.10;99.90;;;9.85;73.68;100045.38;5073835;28;20213;-77
2022/04/20 07:13:50;;;;;;;0.20;0.20;;;9.30;99.90;;;9.99;73.37;100053.38;5076804;28;20212;-76
2022/04/20 07:16:18;;;;;;;0.10;0.10;;;9.40;99.90;;;10.05;73.04;100043.72;5063739;28;20236;-76
2022/04/20 07:19:10;;;;;;;0.20;0.20;;;9.60;99.90;;;10.09;72.87;100023.50;5067790;28;20206;-76
2022/04/20 07:21:53;;;;;;;0.20;0.20;;;9.70;99.90;;;10.40;72.33;100041.31;5061930;28;20209;-76
2022/04/20 07:24:27;;;;;;;0.20;0.20;;;9.80;99.90;;;10.61;71.92;100040.47;5080041;28;20209;-76
2022/04/20 07:27:01;;;;;;;0.20;0.20;;;10.00;99.90;;;10.77;71.25;100033.47;5075130;28;20232;-76
2022/04/20 07:29:48;;;;;;;0.20;0.20;;;10.20;99.90;;;10.89;69.51;99997.31;5083220;28;20217;-76
2022/04/20 07:32:48;;;;;;;0.20;0.20;;;10.40;99.90;;;10.99;68.11;99953.25;5049970;28;20218;-76
2022/04/20 07:35:36;;;;;;;0.20;0.20;;;10.50;99.90;;;10.97;66.65;99912.66;5059799;28;20221;-76
2022/04/20 07:38:25;;;;;;;0.20;0.20;;;10.60;99.90;;;11.31;66.02;99900.25;5077786;28;20205;-75
2022/04/20 07:41:12;;;;;;;0.20;0.20;;;10.70;99.90;;;11.42;65.37;99879.94;5076384;28;20217;-76
2022/04/20 07:43:49;;;;;;;0.20;0.20;;;10.90;99.90;;;11.38;63.58;99832.28;5060623;28;20208;-75
2022/04/20 07:46:28;;;;;;;0.20;0.20;;;11.00;99.90;;;11.22;63.35;99790.00;5059328;28;20225;-76
2022/04/20 07:52:28;;;;;;;0.15;0.15;;;11.10;99.90;;;11.32;62.79;99776.72;5061225;28;20205;-76
2022/04/20 07:55:25;;;;;;;0.20;0.20;;;11.10;99.90;;;11.25;62.66;99749.41;5061974;28;20228;-76
2022/04/20 07:57:58;;;;;;;0.10;0.10;;;11.20;99.90;;;11.62;62.02;99759.81;5066534;28;20212;-76
2022/04/20 08:00:45;;;;;;;0.10;0.10;;;11.30;99.90;;;11.78;62.47;99765.06;5074089;28;20209;-77
2022/04/20 08:03:36;;;;;;;0.20;0.20;;;11.40;99.90;;;11.39;61.29;99689.34;5042130;28;20666;-76
2022/04/20 08:06:06;;;;;;;0.20;0.20;;;11.40;99.90;;;11.83;60.86;99720.00;5053592;28;20233;-75
2022/04/20 08:08:38;;;;;;;0.10;0.10;;;11.50;99.90;;;11.65;60.44;99685.63;5052586;28;20241;-76
2022/04/20 08:11:07;;;;;;;0.22;0.22;;;11.50;99.90;;;11.69;60.09;99671.47;5061878;28;20206;-75
2022/04/20 08:16:43;;;;;;;0.10;0.10;;;11.80;99.90;;;11.78;58.61;99619.38;5076293;28;20240;-76
2022/04/20 08:19:29;;;;;;;0.30;0.30;;;11.80;99.90;;;11.77;58.35;99595.50;5086301;28;20212;-76
2022/04/20 08:22:24;;;;;;;0.10;0.10;;;11.80;99.90;;;12.32;58.36;99648.88;5057314;28;20206;-76
2022/04/20 08:24:53;;;;;;;0.20;0.20;;;12.00;99.90;;;11.92;57.17;99560.97;5075565;28;20295;-76
2022/04/20 08:27:22;;;;;;;0.20;0.20;;;12.00;99.90;;;12.12;57.70;99566.03;5068625;28;20232;-76
2022/04/20 08:29:51;;;;;;;0.10;0.10;;;11.90;99.90;;;12.35;58.04;99595.81;5080484;28;20206;-76
2022/04/20 08:32:20;;;;;;;0.10;0.10;;;12.20;99.90;;;12.21;57.26;99557.09;5071897;28;20604;-75
2022/04/20 08:34:48;;;;;;;0.10;0.10;;;12.20;99.90;;;12.17;57.08;99535.06;5076688;28;20206;-76
2022/04/20 08:37:32;;;;;;;0.15;0.15;;;12.20;99.90;;;12.25;57.24;99533.19;5072111;28;20209;-77
2022/04/20 08:40:01;;;;;;;0.20;0.20;;;12.20;99.90;;;12.65;56.97;99567.16;5081995;28;20202;-76
2022/04/20 08:42:33;;;;;;;0.10;0.10;;;12.30;99.90;;;12.68;56.39;99545.91;5063060;28;20202;-77
2022/04/20 08:45:03;;;;;;;0.10;0.10;;;12.40;99.90;;;13.07;56.85;99581.63;5062462;28;20205;-75
2022/04/20 08:47:38;;;;;;;0.20;0.20;;;12.70;99.90;;;12.53;56.57;99491.28;5083575;28;20229;-76
2022/04/20 08:50:09;;;;;;;0.10;0.10;;;12.60;99.90;;;13.04;54.62;99507.38;5074284;22;20225;-80
2022/04/20 08:52:37;;;;;;;0.10;0.10;;;12.80;99.90;;;13.12;54.23;99482.44;5053246;28;20203;-81
2022/04/20 08:55:16;;;;;;;0.20;0.20;;;12.80;99.90;;;13.06;53.43;99449.81;5035571;28;20207;-80
2022/04/20 08:57:50;;;;;;;0.10;0.10;;;12.90;99.90;;;13.29;54.62;99483.97;5071738;28;20600;-80
2022/04/20 09:00:23;;;;;;;0.10;0.10;;;13.10;99.90;;;12.92;54.27;99419.94;5066972;28;20300;-80
2022/04/20 09:03:00;;;;;;;0.10;0.10;;;13.10;99.90;;;12.94;54.40;99411.06;5055376;28;20214;-79
2022/04/20 09:05:36;;;;;;;0.10;0.10;;;13.00;99.90;;;13.41;54.88;99463.41;5069382;28;20221;-78
2022/04/20 09:08:12;;;;;;;0.10;0.10;;;13.20;99.90;;;13.47;53.71;99449.13;5074361;28;20236;-78
2022/04/20 09:10:40;;;;;;;0.10;0.10;;;13.50;99.90;;;13.43;54.16;99419.09;5065130;28;20201;-77
2022/04/20 09:13:11;;;;;;;0.70;0.70;;;13.40;99.90;;;13.08;52.82;99337.41;5045331;28;20451;-78
2022/04/20 09:15:41;;;;;;;0.10;0.10;;;14.10;99.90;;;13.39;53.27;99372.25;5065582;28;20234;-77
2022/04/20 09:18:10;;;;;;;0.10;0.10;;;13.40;99.90;;;13.26;53.94;99367.22;5069150;28;20224;-79
2022/04/20 09:20:40;;;;;;;0.10;0.10;;;13.40;99.90;;;13.50;53.71;99389.75;5036387;28;20203;-79
2022/04/20 09:23:13;;;;;;;0.10;0.10;;;13.50;99.90;;;13.78;53.13;99393.63;5072210;28;20224;-78
2022/04/20 09:25:49;;;;;;;0.10;0.10;;;13.70;99.90;;;13.89;52.67;99373.00;5050685;28;20252;-79
2022/04/20 09:28:18;;;;;;;0.10;0.10;;;13.70;99.90;;;13.81;53.16;99361.66;5073012;28;20220;-79
2022/04/20 09:30:51;;;;;;;0.10;0.10;;;13.80;99.90;;;14.05;51.69;99360.25;5048525;28;20678;-79
2022/04/20 09:33:19;;;;;;;0.10;0.10;;;14.00;99.90;;;14.16;53.36;99382.16;5069942;28;20206;-79
2022/04/20 09:35:49;;;;;;;0.90;0.90;;;14.30;99.90;;;14.26;52.71;99361.56;5057412;28;20233;-80
2022/04/20 09:38:21;;;;;;;0.10;0.10;;;14.40;99.90;;;14.41;51.75;99345.28;5060862;28;20205;-79
2022/04/20 09:40:52;;;;;;;0.10;0.10;;;14.60;99.90;;;15.10;51.93;99395.03;5054741;28;20212;-80
2022/04/20 09:43:21;;;;;;;0.10;0.10;;;14.90;99.90;;;14.25;51.73;99250.78;5039535;28;20220;-81
2022/04/20 09:46:04;;;;;;;0.10;0.10;;;14.40;99.50;;;14.26;51.63;99253.41;5072829;28;20229;-80
2022/04/20 09:48:50;;;;;;;0.10;0.10;;;14.70;99.30;;;14.59;51.33;99273.03;5066067;28;20225;-80
2022/04/20 09:51:20;;;;;;;0.10;0.10;;;14.60;99.70;;;14.62;50.85;99272.09;5063146;28;20214;-80
2022/04/20 09:53:49;;;;;;;0.10;0.10;;;14.80;98.90;;;14.93;50.64;99280.13;5067954;28;20207;-81
2022/04/20 09:56:27;;;;;;;0.10;0.10;;;15.00;98.50;;;14.83;50.54;99250.22;5068353;28;20217;-81
2022/04/20 09:59:01;;;;;;;0.10;0.10;;;15.10;97.40;;;15.37;51.53;99327.72;5060224;28;20202;-80
2022/04/20 10:01:36;;;;;;;0.10;0.10;;;15.30;99.90;;;15.12;49.29;99224.56;5067600;28;20221;-79
2022/04/20 10:04:06;;;;;;;0.20;0.20;;;15.40;96.40;;;14.79;49.31;99131.47;5066976;28;20205;-81
2022/04/20 10:06:35;;;;;;;0.10;0.10;;;15.30;95.40;;;14.77;48.81;99112.00;5065119;28;20658;-81
2022/04/20 10:09:03;;;;;;;0.10;0.10;;;15.20;95.20;;;14.95;48.48;99123.91;5071256;28;20225;-81
2022/04/20 10:11:32;;;;;;;0.10;0.10;;;15.20;94.60;;;14.71;48.26;99056.31;5064366;28;20202;-80
2022/04/20 10:16:51;;;;;;;0.10;0.10;;;15.20;95.10;;;15.13;48.87;99109.16;5048473;28;20221;-80
2022/04/20 10:19:27;;;;;;;0.10;0.10;;;15.30;94.60;;;15.04;48.49;99081.03;5075721;28;20202;-81
2022/04/20 10:21:57;;;;;;;0.10;0.10;;;15.30;93.90;;;15.28;48.74;99112.22;5056334;28;20201;-81
2022/04/20 10:24:30;;;;;;;0.10;0.10;;;15.40;93.90;;;15.45;48.46;99119.69;5067644;28;20213;-81
2022/04/20 10:27:08;;;;;;;0.10;0.10;;;15.90;94.50;;;16.08;49.74;99209.22;5067009;28;20230;-80
2022/04/20 10:29:59;;;;;;;0.10;0.10;;;16.10;95.70;;;15.79;48.56;99095.53;5048771;28;20225;-79
2022/04/20 10:32:49;;;;;;;0.10;0.10;;;16.20;93.90;;;16.31;49.68;99184.44;5053570;28;20293;-81
2022/04/20 10:35:21;;;;;;;0.10;0.10;;;16.40;94.70;;;16.23;48.74;99136.69;5052069;28;20229;-81
2022/04/20 10:38:12;;;;;;;0.10;0.10;;;16.60;93.70;;;15.44;47.24;98957.25;5055872;28;20220;-79
2022/04/20 10:41:09;;;;;;;0.10;0.10;;;16.30;90.80;;;15.68;47.37;98989.31;5063615;28;20673;-80
2022/04/20 10:43:42;;;;;;;0.10;0.10;;;16.20;90.50;;;16.44;48.40;99112.84;5046350;28;20210;-80
2022/04/20 10:46:20;;;;;;;0.10;0.10;;;16.40;93.20;;;16.90;48.64;99179.72;5050554;28;20227;-80
2022/04/20 10:49:07;;;;;;;0.10;0.10;;;16.70;93.50;;;16.09;47.72;98983.44;5068050;28;20236;-81
2022/04/20 10:51:39;;;;;;;0.10;0.10;;;16.80;91.50;;;17.04;48.56;99148.97;5072039;28;20204;-81
2022/04/20 10:54:27;;;;;;;0.10;0.10;;;17.20;93.80;;;16.57;48.25;99034.09;5071292;28;20210;-80
2022/04/20 10:57:02;;;;;;;0.10;0.10;;;17.20;91.90;;;17.19;47.87;99113.66;5065267;28;20221;-80
2022/04/20 10:59:30;;;;;;;0.10;0.10;;;17.20;92.00;;;16.90;47.09;99013.28;5049850;28;20213;-81
2022/04/20 11:02:03;;;;;;;0.10;0.10;;;17.40;90.80;;;17.34;48.07;99094.34;5058455;28;20596;-81
2022/04/20 11:04:48;;;;;;;0.10;0.10;;;17.40;92.00;;;16.70;46.21;98904.59;5062454;28;20222;-80
2022/04/20 11:07:26;;;;;;;0.10;0.10;;;17.30;87.20;;;17.07;46.93;98996.63;5068343;28;20641;-80
2022/04/20 11:10:02;;;;;;;0.00;0.00;;;17.70;90.70;;;17.16;47.57;99006.94;5073018;28;20236;-80
2022/04/20 11:18:38;;;;;;;0.10;0.10;;;16.90;87.10;;;15.92;45.54;98747.66;5064369;28;20217;-80
2022/04/20 11:21:24;;;;;;;0.03;0.03;;;16.70;83.40;;;17.14;48.08;98977.59;5064037;28;20224;-81
2022/04/20 11:24:06;;;;;;;0.10;0.10;;;17.10;90.20;;;17.74;45.24;98996.50;5067865;28;20213;-81
2022/04/20 11:26:39;;;;;;;0.00;0.00;;;17.60;87.90;;;18.29;46.99;99080.63;5051017;28;20229;-81
2022/04/20 11:29:16;;;;;;;0.10;0.10;;;18.20;90.80;;;17.44;45.51;98859.69;5063732;28;20678;-79
2022/04/20 11:31:51;;;;;;;0.10;0.10;;;18.50;84.50;;;17.86;47.78;98979.94;5060366;28;20202;-80
2022/04/20 11:34:21;;;;;;;0.00;0.00;;;18.20;88.10;;;17.80;46.43;98924.91;5067506;28;20193;-79
2022/04/20 11:37:00;;;;;;;0.10;0.10;;;18.40;86.00;;;17.56;45.32;98875.19;5032916;28;20229;-79
2022/04/20 11:39:29;;;;;;;0.00;0.00;;;18.30;84.80;;;17.52;45.85;98850.41;5056712;28;20217;-81